Time;durP1;ratioP1;P1;durP2;ratioP2;P2;SDS_P1;SDS_P2;PMS_P1;PMS_P2;Temp;Humidity;BMP_temperature;BMP_pressure;BME280_temperature;BME280_humidity;BME280_pressure;Samples;Min_cycle;Max_cycle;Signal;HPM_P1;HPM_P2
2022/05/27 00:00:49;;;;;;;4.80;2.65;;;23.00;53.50;;;;;;6161735;28;80553;-68
2022/05/27 00:03:50;;;;;;;4.55;2.78;;;23.00;53.10;;;;;;6161978;28;80914;-68
2022/05/27 00:06:50;;;;;;;8.30;2.95;;;23.00;53.20;;;;;;6160239;28;83606;-68
2022/05/27 00:09:51;;;;;;;4.75;2.65;;;23.00;53.20;;;;;;6162024;28;80412;-67
2022/05/27 00:12:52;;;;;;;5.00;2.58;;;23.00;53.20;;;;;;6161390;28;80503;-67
2022/05/27 00:15:52;;;;;;;4.28;2.25;;;23.00;53.10;;;;;;6143918;28;80606;-66
2022/05/27 00:18:53;;;;;;;4.43;2.25;;;23.00;53.10;;;;;;6161357;28;80538;-67
2022/05/27 00:21:53;;;;;;;2.95;2.03;;;23.00;53.40;;;;;;6161177;28;81528;-67
2022/05/27 00:24:54;;;;;;;4.18;2.58;;;23.00;53.70;;;;;;6160969;28;80598;-67
2022/05/27 00:27:55;;;;;;;2.83;2.03;;;23.00;53.60;;;;;;6161544;28;80429;-67
2022/05/27 00:30:56;;;;;;;3.88;2.50;;;23.00;53.60;;;;;;6161660;28;80396;-67
2022/05/27 00:33:57;;;;;;;4.18;2.67;;;23.00;53.70;;;;;;6161350;28;81844;-67
2022/05/27 00:36:57;;;;;;;4.03;2.13;;;23.00;53.50;;;;;;6160962;28;81461;-67
2022/05/27 00:39:58;;;;;;;3.28;1.95;;;23.00;53.40;;;;;;6161128;28;80508;-67
2022/05/27 00:42:58;;;;;;;3.40;2.10;;;23.00;53.10;;;;;;6161084;28;81738;-67
2022/05/27 00:45:59;;;;;;;2.92;2.00;;;23.00;53.50;;;;;;6160725;28;81639;-68
2022/05/27 00:48:59;;;;;;;4.22;2.30;;;23.00;53.20;;;;;;6159346;28;80731;-67
2022/05/27 00:52:00;;;;;;;2.78;1.98;;;23.00;53.40;;;;;;6161244;28;87125;-67
2022/05/27 00:55:00;;;;;;;3.63;2.00;;;23.00;53.40;;;;;;6161298;28;80573;-67
2022/05/27 00:58:01;;;;;;;3.53;2.00;;;23.00;53.70;;;;;;6161219;28;80436;-67
2022/05/27 01:01:02;;;;;;;2.60;1.90;;;23.00;53.00;;;;;;6160992;28;80324;-67
2022/05/27 01:04:02;;;;;;;4.05;1.98;;;23.00;53.00;;;;;;6160974;28;80737;-67
2022/05/27 01:07:05;;;;;;;3.10;1.88;;;22.90;53.10;;;;;;6160485;28;81534;-67
2022/05/27 01:10:06;;;;;;;3.20;2.03;;;22.90;52.80;;;;;;6160914;28;80508;-67
2022/05/27 01:13:06;;;;;;;5.35;2.60;;;22.90;53.30;;;;;;6159052;28;80348;-66
2022/05/27 01:16:07;;;;;;;3.63;1.83;;;23.00;53.40;;;;;;6160518;28;80543;-67
2022/05/27 01:22:27;;;;;;;2.67;1.98;;;23.00;53.10;;;;;;6160551;28;80497;-66
2022/05/27 01:25:29;;;;;;;3.72;2.10;;;23.00;52.90;;;;;;6159364;28;80353;-66
2022/05/27 01:28:29;;;;;;;2.38;1.85;;;22.90;52.90;;;;;;6156140;28;80612;-67
2022/05/27 01:31:29;;;;;;;3.38;1.88;;;22.90;53.20;;;;;;6160628;28;80514;-66
2022/05/27 01:34:30;;;;;;;3.60;2.03;;;22.90;53.10;;;;;;6160165;28;81084;-66
2022/05/27 01:37:30;;;;;;;3.22;2.22;;;22.90;52.90;;;;;;6160420;28;80352;-67
2022/05/27 01:40:31;;;;;;;3.25;1.90;;;22.90;52.90;;;;;;6160347;28;80525;-67
2022/05/27 01:43:31;;;;;;;4.03;1.95;;;22.90;52.90;;;;;;6160128;28;80486;-67
2022/05/27 01:46:32;;;;;;;3.70;1.83;;;22.90;53.10;;;;;;6160005;28;80313;-67
2022/05/27 01:49:32;;;;;;;3.47;2.08;;;23.00;53.20;;;;;;6159823;28;82060;-67
2022/05/27 01:52:33;;;;;;;2.15;1.67;;;22.90;53.10;;;;;;6159700;28;81288;-67
2022/05/27 01:55:33;;;;;;;3.97;1.63;;;22.90;53.30;;;;;;6160084;28;80427;-67
2022/05/27 01:58:34;;;;;;;2.17;1.58;;;22.90;53.20;;;;;;6159737;28;80596;-67
2022/05/27 02:01:34;;;;;;;3.42;2.03;;;23.00;53.20;;;;;;6159282;28;80513;-66
2022/05/27 02:04:36;;;;;;;2.28;1.75;;;22.90;53.20;;;;;;6159514;28;80542;-67
2022/05/27 02:07:36;;;;;;;1.88;1.38;;;22.90;53.30;;;;;;6159893;28;80678;-67
2022/05/27 02:10:37;;;;;;;2.58;1.92;;;22.90;53.30;;;;;;6168595;28;80970;-67
2022/05/27 02:13:38;;;;;;;2.40;1.67;;;22.90;53.20;;;;;;6159145;28;81444;-67
2022/05/27 02:16:39;;;;;;;2.60;1.67;;;22.90;53.20;;;;;;6159310;28;80209;-68
2022/05/27 02:19:39;;;;;;;4.28;1.40;;;22.90;53.20;;;;;;6159237;28;80809;-68
2022/05/27 02:22:40;;;;;;;2.33;1.42;;;22.90;53.40;;;;;;6158575;28;80454;-68
2022/05/27 02:25:40;;;;;;;1.80;1.60;;;22.90;53.20;;;;;;6159273;28;80374;-68
2022/05/27 02:28:41;;;;;;;2.00;1.50;;;22.90;53.30;;;;;;6159400;28;80611;-68
2022/05/27 02:31:41;;;;;;;2.78;1.40;;;22.90;53.40;;;;;;6159150;28;80314;-67
2022/05/27 02:38:01;;;;;;;2.28;1.55;;;22.90;53.30;;;;;;6155858;28;80366;-67
2022/05/27 02:41:01;;;;;;;2.17;1.67;;;22.90;53.10;;;;;;6157241;28;80438;-67
2022/05/27 02:44:02;;;;;;;2.70;1.67;;;22.90;53.10;;;;;;6157176;28;81697;-68
2022/05/27 02:47:02;;;;;;;5.10;1.73;;;22.90;53.00;;;;;;6157030;28;81843;-68
2022/05/27 02:50:03;;;;;;;2.03;1.20;;;22.90;53.30;;;;;;6158759;28;80157;-68
2022/05/27 02:53:04;;;;;;;2.78;1.63;;;22.90;53.40;;;;;;6149325;28;80029;-67
2022/05/27 02:56:04;;;;;;;1.77;1.20;;;22.90;53.10;;;;;;6157166;28;80748;-67
2022/05/27 02:59:05;;;;;;;1.67;1.30;;;22.90;53.40;;;;;;6158125;28;80606;-67
2022/05/27 03:02:05;;;;;;;1.92;1.42;;;22.90;53.40;;;;;;6157527;28;81631;-67
2022/05/27 03:05:06;;;;;;;1.58;1.20;;;22.90;53.10;;;;;;6156471;28;81220;-68
2022/05/27 03:08:06;;;;;;;2.10;1.40;;;22.90;52.90;;;;;;6158223;28;80770;-67
2022/05/27 03:11:07;;;;;;;1.48;1.30;;;22.90;52.90;;;;;;6158723;28;81416;-67
2022/05/27 03:14:07;;;;;;;2.67;1.48;;;22.90;52.90;;;;;;6157004;28;80025;-67
2022/05/27 03:17:08;;;;;;;1.63;1.45;;;22.90;53.00;;;;;;6158391;28;80276;-67
2022/05/27 03:20:09;;;;;;;4.22;1.95;;;22.90;53.10;;;;;;6158192;28;81005;-67
2022/05/27 03:23:09;;;;;;;1.58;1.25;;;22.90;53.00;;;;;;6157841;28;80710;-67
2022/05/27 03:26:10;;;;;;;2.53;1.50;;;22.90;52.80;;;;;;6153619;28;80356;-68
2022/05/27 03:29:10;;;;;;;2.10;1.65;;;22.90;53.00;;;;;;6158285;28;81580;-68
2022/05/27 03:32:11;;;;;;;1.75;1.27;;;22.80;53.70;;;;;;6155590;28;81606;-67
2022/05/27 03:35:13;;;;;;;2.15;1.55;;;22.90;53.00;;;;;;6157120;28;80562;-68
2022/05/27 03:38:14;;;;;;;2.42;1.40;;;22.90;52.90;;;;;;6150789;28;80636;-71
2022/05/27 03:41:14;;;;;;;3.03;1.30;;;22.90;53.10;;;;;;6144747;28;83723;-70
2022/05/27 03:44:15;;;;;;;7.10;1.30;;;22.80;53.60;;;;;;6148884;28;80440;-69
2022/05/27 03:47:15;;;;;;;2.65;1.60;;;22.80;53.60;;;;;;6149345;28;81311;-65
2022/05/27 03:50:16;;;;;;;2.00;1.23;;;22.90;53.90;;;;;;6146489;28;81346;-70
2022/05/27 03:53:16;;;;;;;4.32;1.30;;;22.90;53.60;;;;;;6161780;28;80653;-66
2022/05/27 03:56:17;;;;;;;1.10;1.00;;;22.90;53.60;;;;;;6160276;28;82819;-68
2022/05/27 03:59:17;;;;;;;1.55;1.30;;;22.90;53.60;;;;;;6160843;28;81553;-68
2022/05/27 04:02:18;;;;;;;2.95;1.58;;;22.90;53.50;;;;;;6161713;28;80419;-66
2022/05/27 04:05:18;;;;;;;2.58;1.50;;;22.90;53.60;;;;;;6161228;28;80679;-69
2022/05/27 04:08:19;;;;;;;5.82;1.83;;;22.90;53.80;;;;;;6161627;28;80421;-69
2022/05/27 04:11:19;;;;;;;3.55;1.80;;;22.90;53.70;;;;;;6154877;28;81038;-68
2022/05/27 04:14:20;;;;;;;3.42;1.80;;;22.90;53.70;;;;;;6161168;28;80408;-71
2022/05/27 04:17:33;;;;;;;2.47;1.70;;;22.90;53.80;;;;;;6152834;28;80851;-67
2022/05/27 04:20:33;;;;;;;2.97;1.50;;;22.90;54.30;;;;;;6161785;28;80574;-67
2022/05/27 04:23:34;;;;;;;2.13;1.50;;;22.80;54.30;;;;;;6160754;28;80997;-68
2022/05/27 04:26:34;;;;;;;6.00;1.92;;;22.90;54.60;;;;;;6151928;28;80697;-69
2022/05/27 04:29:35;;;;;;;7.22;1.58;;;22.90;54.70;;;;;;6153580;28;81608;-70
2022/05/27 04:32:35;;;;;;;4.50;1.63;;;22.90;54.80;;;;;;6161376;28;81455;-71
2022/05/27 04:35:36;;;;;;;5.90;1.63;;;22.90;54.90;;;;;;6161554;28;80170;-63
2022/05/27 04:38:36;;;;;;;4.13;1.63;;;22.90;55.00;;;;;;6161013;28;81134;-66
2022/05/27 04:41:37;;;;;;;3.53;1.52;;;22.80;55.20;;;;;;6161083;28;81533;-66
2022/05/27 04:44:38;;;;;;;3.10;1.85;;;22.80;55.00;;;;;;6150467;28;80580;-67
2022/05/27 04:47:38;;;;;;;4.00;1.88;;;22.90;54.90;;;;;;6155135;28;81624;-66
2022/05/27 04:50:39;;;;;;;2.20;1.23;;;22.90;54.80;;;;;;6161075;28;80707;-63
2022/05/27 04:53:39;;;;;;;3.45;1.75;;;23.00;55.00;;;;;;6160820;28;80704;-71
2022/05/27 04:56:40;;;;;;;12.20;1.45;;;22.90;55.30;;;;;;6160512;28;82092;-69
2022/05/27 04:59:40;;;;;;;2.50;1.08;;;22.90;55.30;;;;;;6160393;28;81208;-64
2022/05/27 05:02:42;;;;;;;4.32;1.48;;;23.00;55.20;;;;;;6158884;28;82189;-66
2022/05/27 05:05:42;;;;;;;4.05;1.67;;;23.10;55.00;;;;;;6160339;28;80222;-64
2022/05/27 05:08:43;;;;;;;2.90;1.45;;;23.10;54.80;;;;;;6154858;28;80267;-69
2022/05/27 05:11:43;;;;;;;4.88;1.70;;;23.10;54.60;;;;;;6160390;28;81069;-67
2022/05/27 05:14:44;;;;;;;8.93;1.15;;;22.70;51.70;;;;;;6158151;28;80332;-68
2022/05/27 05:17:44;;;;;;;2.65;1.00;;;21.50;52.20;;;;;;6160290;28;81594;-67
2022/05/27 05:20:45;;;;;;;4.85;1.05;;;21.00;53.50;;;;;;6160059;28;80422;-67
2022/05/27 05:23:45;;;;;;;2.13;1.10;;;20.60;54.20;;;;;;6159299;28;81016;-68
2022/05/27 05:26:46;;;;;;;2.15;1.05;;;20.40;55.10;;;;;;6158553;28;81785;-68
2022/05/27 05:29:47;;;;;;;4.97;2.45;;;20.20;55.50;;;;;;6160145;28;81367;-67
2022/05/27 05:32:47;;;;;;;1.65;1.10;;;20.20;56.10;;;;;;6160072;28;80644;-67
2022/05/27 05:35:48;;;;;;;3.75;1.20;;;20.30;56.00;;;;;;6159887;28;80149;-67
2022/05/27 05:38:48;;;;;;;5.00;0.90;;;20.20;56.10;;;;;;6159406;28;80562;-68
2022/05/27 05:41:48;;;;;;;4.97;1.10;;;20.10;56.50;;;;;;6151436;28;80669;-69
2022/05/27 05:44:50;;;;;;;2.95;1.45;;;20.00;56.60;;;;;;6145613;28;80633;-64
2022/05/27 05:47:50;;;;;;;4.90;1.20;;;20.00;56.60;;;;;;6156285;28;81179;-63
2022/05/27 05:50:51;;;;;;;3.55;1.00;;;19.90;56.40;;;;;;6152234;28;80558;-63
2022/05/27 05:53:51;;;;;;;9.88;1.77;;;19.90;56.70;;;;;;6159602;28;81040;-64
2022/05/27 05:56:52;;;;;;;5.30;1.30;;;19.90;56.60;;;;;;6159047;28;81389;-68
2022/05/27 05:59:52;;;;;;;4.60;1.52;;;20.20;56.40;;;;;;6156872;28;80507;-68
2022/05/27 06:02:53;;;;;;;1.23;1.13;;;20.20;56.20;;;;;;6158982;28;80553;-68
2022/05/27 06:05:53;;;;;;;2.83;1.23;;;20.20;56.20;;;;;;6159051;28;80514;-67
2022/05/27 06:08:54;;;;;;;1.13;1.00;;;20.20;56.40;;;;;;6158312;28;80608;-67
2022/05/27 06:11:54;;;;;;;4.97;1.23;;;20.10;57.00;;;;;;6158346;28;80348;-67
2022/05/27 06:14:55;;;;;;;1.85;0.93;;;20.00;56.90;;;;;;6158722;28;81469;-67
2022/05/27 06:17:55;;;;;;;1.38;1.00;;;20.10;57.30;;;;;;6159263;28;80711;-67
2022/05/27 06:20:56;;;;;;;3.80;1.38;;;20.20;57.50;;;;;;6151345;28;81636;-68
2022/05/27 06:23:56;;;;;;;2.00;1.10;;;20.30;57.00;;;;;;6142176;28;82632;-67
2022/05/27 06:26:57;;;;;;;3.70;1.17;;;20.60;56.60;;;;;;6138763;28;81903;-67
2022/05/27 06:36:36;;;;;;;1.98;1.20;;;21.00;55.00;;;;;;6140501;28;80491;-67
2022/05/27 06:39:37;;;;;;;2.47;1.17;;;21.00;54.10;;;;;;6141206;28;80323;-67
2022/05/27 06:42:37;;;;;;;2.38;1.05;;;21.00;53.60;;;;;;6140466;28;81652;-67
2022/05/27 06:45:39;;;;;;;1.75;0.98;;;20.90;53.70;;;;;;6139870;28;81103;-67
2022/05/27 06:48:40;;;;;;;6.55;1.05;;;20.80;53.70;;;;;;6141408;28;80769;-67
2022/05/27 06:51:41;;;;;;;1.70;1.05;;;20.80;53.70;;;;;;6156180;28;80429;-67
2022/05/27 06:54:42;;;;;;;4.18;1.10;;;20.90;53.80;;;;;;6149338;28;80877;-67
2022/05/27 06:57:42;;;;;;;5.05;1.00;;;20.90;53.50;;;;;;6151333;28;80694;-68
2022/05/27 07:00:43;;;;;;;2.97;1.10;;;20.90;53.90;;;;;;6151631;28;81452;-68
2022/05/27 07:03:43;;;;;;;3.25;1.00;;;20.90;53.90;;;;;;6146529;28;81381;-68
2022/05/27 07:06:44;;;;;;;3.35;1.63;;;21.10;53.90;;;;;;6158175;28;80043;-68
2022/05/27 07:09:44;;;;;;;2.53;1.30;;;20.90;54.40;;;;;;6150184;28;80992;-62
2022/05/27 07:12:45;;;;;;;1.95;1.10;;;20.80;54.60;;;;;;6142521;28;87473;-61
2022/05/27 07:15:45;;;;;;;2.13;1.10;;;20.80;54.70;;;;;;6158411;28;80601;-62
2022/05/27 07:18:46;;;;;;;1.70;1.20;;;20.90;54.70;;;;;;6156685;28;81917;-68
2022/05/27 07:21:47;;;;;;;1.85;0.93;;;21.00;54.70;;;;;;6158230;28;80804;-67
2022/05/27 07:24:47;;;;;;;3.53;1.15;;;20.90;54.70;;;;;;6162317;28;80523;-67
2022/05/27 07:27:48;;;;;;;3.97;1.30;;;20.90;54.80;;;;;;6158267;28;80257;-67
2022/05/27 07:30:48;;;;;;;1.30;1.20;;;20.90;54.60;;;;;;6162050;28;81446;-67
2022/05/27 07:33:49;;;;;;;3.97;1.20;;;21.00;54.10;;;;;;6161946;28;81110;-67
2022/05/27 07:36:49;;;;;;;4.28;2.00;;;21.10;54.10;;;;;;6160382;28;80804;-67
2022/05/27 07:39:50;;;;;;;2.85;1.10;;;21.20;54.10;;;;;;6158408;28;80791;-67
2022/05/27 07:42:50;;;;;;;2.17;1.02;;;21.20;54.00;;;;;;6162240;28;81314;-67
2022/05/27 07:45:51;;;;;;;3.55;1.13;;;21.20;54.30;;;;;;6160484;28;80606;-66
2022/05/27 07:48:51;;;;;;;3.60;1.00;;;21.20;54.40;;;;;;6161323;28;80662;-67
2022/05/27 07:51:52;;;;;;;6.05;2.45;;;21.30;54.20;;;;;;6163056;28;80303;-67
2022/05/27 07:54:54;;;;;;;4.15;2.40;;;21.50;54.30;;;;;;6156847;28;80631;-66
2022/05/27 07:57:54;;;;;;;5.85;1.70;;;21.60;53.60;;;;;;6161567;28;80461;-67
2022/05/27 08:00:55;;;;;;;2.92;1.30;;;21.80;53.40;;;;;;6161490;28;80068;-67
2022/05/27 08:03:55;;;;;;;1.77;0.90;;;21.60;51.90;;;;;;6161855;28;80887;-67
2022/05/27 08:06:56;;;;;;;9.52;2.95;;;21.60;51.70;;;;;;6159981;28;80312;-66
2022/05/27 08:09:56;;;;;;;3.22;1.90;;;21.50;51.10;;;;;;6160330;28;80678;-67
2022/05/27 08:12:57;;;;;;;4.47;1.27;;;21.30;51.50;;;;;;6148475;28;80438;-67
2022/05/27 08:15:58;;;;;;;5.93;1.80;;;21.30;51.90;;;;;;6155860;28;81475;-67
2022/05/27 08:18:58;;;;;;;4.38;1.45;;;21.40;52.00;;;;;;6161151;28;80338;-68
2022/05/27 08:21:59;;;;;;;2.85;1.30;;;21.40;52.10;;;;;;6161254;28;81162;-67
2022/05/27 08:25:00;;;;;;;3.05;1.50;;;21.50;52.20;;;;;;6160999;28;81723;-67
2022/05/27 08:28:00;;;;;;;2.55;1.40;;;21.50;52.10;;;;;;6161343;28;80429;-67
2022/05/27 08:31:01;;;;;;;2.55;1.30;;;21.60;52.40;;;;;;6151075;28;80498;-67
2022/05/27 08:40:50;;;;;;;6.45;1.70;;;22.00;52.40;;;;;;6160925;28;80264;-67
2022/05/27 08:43:51;;;;;;;2.33;1.27;;;21.90;52.30;;;;;;6157234;28;80652;-68
2022/05/27 08:46:52;;;;;;;4.40;1.70;;;21.80;51.70;;;;;;6144951;28;82999;-67
2022/05/27 08:49:52;;;;;;;4.20;1.33;;;21.90;52.00;;;;;;6161007;28;80517;-68
2022/05/27 08:52:53;;;;;;;5.30;1.42;;;21.90;52.30;;;;;;6160471;28;81493;-67
2022/05/27 09:02:43;;;;;;;2.60;1.10;;;22.20;51.10;;;;;;6157128;28;85923;-67
2022/05/27 09:05:43;;;;;;;15.30;1.73;;;22.20;50.50;;;;;;6160037;28;80598;-67
2022/05/27 09:08:44;;;;;;;4.82;1.00;;;22.30;50.30;;;;;;6159833;28;81457;-67
2022/05/27 09:11:44;;;;;;;7.03;1.70;;;22.40;50.20;;;;;;6157140;28;80664;-67
2022/05/27 09:14:45;;;;;;;4.65;1.00;;;22.40;49.80;;;;;;6160392;28;81305;-66
2022/05/27 09:17:48;;;;;;;3.75;1.05;;;22.50;49.50;;;;;;6155012;28;80964;-66
2022/05/27 09:20:49;;;;;;;2.00;1.02;;;22.50;49.60;;;;;;6148808;28;80527;-66
2022/05/27 09:23:50;;;;;;;4.13;1.23;;;22.50;49.10;;;;;;6157401;28;80630;-67
2022/05/27 09:26:50;;;;;;;1.80;1.15;;;22.50;49.00;;;;;;6160288;28;81361;-67
2022/05/27 09:29:51;;;;;;;3.80;1.10;;;22.50;48.80;;;;;;6159602;28;80277;-67
2022/05/27 09:32:51;;;;;;;2.22;1.13;;;22.50;49.00;;;;;;6155824;28;80796;-67
2022/05/27 09:35:52;;;;;;;3.42;1.42;;;22.60;48.90;;;;;;6159705;28;80594;-67
2022/05/27 09:38:52;;;;;;;13.45;1.95;;;22.70;49.00;;;;;;6157970;28;80450;-67
2022/05/27 09:41:53;;;;;;;5.78;1.55;;;22.70;48.90;;;;;;6159580;28;80559;-66
2022/05/27 09:44:54;;;;;;;6.22;1.70;;;22.70;48.70;;;;;;6158750;28;81398;-67
2022/05/27 09:47:54;;;;;;;4.68;1.20;;;22.80;48.80;;;;;;6159722;28;80668;-67
2022/05/27 09:50:54;;;;;;;4.57;1.50;;;22.70;48.50;;;;;;6159695;28;80578;-67
2022/05/27 09:53:55;;;;;;;2.83;1.23;;;22.80;48.80;;;;;;6159835;28;80786;-66
2022/05/27 09:56:56;;;;;;;1.88;1.33;;;22.90;48.70;;;;;;6159618;28;80304;-67
2022/05/27 09:59:57;;;;;;;4.97;1.60;;;22.90;48.40;;;;;;6159529;28;80718;-67
2022/05/27 10:02:57;;;;;;;4.00;1.13;;;23.00;49.00;;;;;;6160070;28;81898;-67
2022/05/27 10:05:58;;;;;;;6.22;1.42;;;23.00;48.70;;;;;;6158552;28;81183;-67
2022/05/27 10:08:58;;;;;;;6.00;1.30;;;23.00;48.90;;;;;;6160220;28;80392;-67
2022/05/27 10:11:59;;;;;;;2.55;1.20;;;23.10;49.00;;;;;;6161274;28;81597;-67
2022/05/27 10:14:59;;;;;;;13.52;1.33;;;23.10;49.10;;;;;;6161735;28;80461;-67
2022/05/27 10:18:00;;;;;;;5.50;1.83;;;23.10;49.10;;;;;;6158938;28;81424;-67
2022/05/27 10:21:01;;;;;;;5.05;1.48;;;23.10;49.10;;;;;;6156704;28;80519;-65
2022/05/27 10:24:01;;;;;;;4.93;1.60;;;23.10;49.40;;;;;;6158435;28;80387;-65
2022/05/27 10:27:02;;;;;;;3.20;1.50;;;23.10;49.50;;;;;;6159253;28;80321;-67
2022/05/27 10:30:04;;;;;;;7.32;1.85;;;23.10;49.20;;;;;;6158908;28;80251;-67
2022/05/27 10:33:04;;;;;;;6.38;1.48;;;22.90;49.50;;;;;;6157538;28;80860;-68
2022/05/27 10:36:05;;;;;;;2.65;1.08;;;22.90;49.50;;;;;;6154035;28;80531;-68
2022/05/27 10:39:05;;;;;;;7.95;2.03;;;22.90;49.50;;;;;;6158591;28;80917;-68
2022/05/27 10:42:05;;;;;;;4.32;1.20;;;22.70;48.80;;;;;;6159077;28;80413;-67
2022/05/27 10:45:06;;;;;;;3.97;1.70;;;22.80;49.10;;;;;;6159628;28;80622;-67
2022/05/27 10:48:07;;;;;;;3.50;1.50;;;22.70;49.40;;;;;;6158523;28;81075;-67
2022/05/27 10:51:07;;;;;;;3.45;1.70;;;22.80;49.40;;;;;;6158624;28;80538;-67
2022/05/27 10:54:08;;;;;;;3.33;1.45;;;22.90;49.30;;;;;;6157185;28;80508;-68
2022/05/27 11:03:47;;;;;;;7.57;2.00;;;22.90;49.10;;;;;;6164362;28;80418;-68
2022/05/27 11:06:47;;;;;;;6.50;1.80;;;22.90;49.30;;;;;;6162642;28;80393;-68
2022/05/27 11:09:48;;;;;;;3.60;1.42;;;22.90;49.30;;;;;;6162353;28;80428;-68
2022/05/27 11:16:07;;;;;;;12.25;1.70;;;22.90;49.40;;;;;;6162310;28;81287;-68
2022/05/27 11:19:08;;;;;;;11.07;3.55;;;23.00;49.60;;;;;;6160139;28;80580;-69
2022/05/27 11:22:08;;;;;;;5.70;2.28;;;22.90;49.70;;;;;;6162233;28;80233;-68
2022/05/27 11:25:09;;;;;;;3.20;1.98;;;22.90;49.80;;;;;;6162176;28;80692;-68
2022/05/27 11:28:09;;;;;;;6.82;1.75;;;22.90;50.20;;;;;;6162234;28;80455;-68
2022/05/27 11:31:11;;;;;;;9.20;2.00;;;22.90;50.20;;;;;;6161927;28;82586;-68
2022/05/27 11:34:12;;;;;;;5.43;2.10;;;22.80;50.10;;;;;;6162106;28;80459;-67
2022/05/27 11:37:12;;;;;;;6.20;2.33;;;22.80;50.30;;;;;;6162149;28;80145;-68
2022/05/27 11:40:13;;;;;;;5.20;1.77;;;22.80;50.10;;;;;;6153309;28;81216;-67
2022/05/27 11:43:13;;;;;;;3.15;1.58;;;22.70;50.30;;;;;;6160281;28;80565;-67
2022/05/27 11:46:14;;;;;;;6.60;3.95;;;22.70;50.70;;;;;;6161847;28;80333;-67
2022/05/27 11:49:14;;;;;;;3.55;2.08;;;22.70;50.60;;;;;;6161637;28;80527;-67
2022/05/27 11:52:15;;;;;;;4.63;2.33;;;22.60;50.70;;;;;;6157565;28;80793;-68
2022/05/27 11:55:15;;;;;;;12.10;1.73;;;22.60;50.90;;;;;;6161727;28;80812;-67
2022/05/27 11:58:18;;;;;;;5.03;1.60;;;22.60;50.60;;;;;;6157830;28;80304;-67
2022/05/27 12:01:18;;;;;;;3.35;2.00;;;22.60;50.60;;;;;;6157166;28;80770;-68
2022/05/27 12:04:18;;;;;;;10.05;2.05;;;22.70;50.70;;;;;;6152762;28;82129;-68
2022/05/27 12:07:19;;;;;;;10.80;2.55;;;22.70;50.90;;;;;;6160692;28;80846;-63
2022/05/27 12:10:20;;;;;;;6.70;1.80;;;22.60;51.00;;;;;;6151111;28;81011;-67
2022/05/27 12:13:20;;;;;;;11.15;2.05;;;22.70;51.20;;;;;;6160509;28;81094;-69
2022/05/27 12:16:21;;;;;;;5.85;1.90;;;22.70;51.30;;;;;;6151765;28;80373;-69
2022/05/27 12:19:21;;;;;;;4.00;1.48;;;22.60;51.40;;;;;;6157130;28;80586;-69
2022/05/27 12:22:22;;;;;;;8.50;2.13;;;22.70;52.00;;;;;;6155220;28;81369;-67
2022/05/27 12:25:22;;;;;;;4.60;1.52;;;22.60;51.30;;;;;;6154485;28;81309;-67
2022/05/27 12:28:23;;;;;;;6.50;1.50;;;22.60;51.40;;;;;;6161458;28;80708;-66
2022/05/27 12:31:24;;;;;;;11.13;2.33;;;22.70;51.30;;;;;;6159977;28;81836;-66
2022/05/27 12:34:24;;;;;;;6.78;2.10;;;22.70;51.40;;;;;;6159784;28;80600;-66
2022/05/27 12:37:25;;;;;;;4.13;1.90;;;22.70;51.30;;;;;;6160208;28;79965;-66
2022/05/27 12:40:26;;;;;;;3.83;1.40;;;22.80;51.30;;;;;;6153885;28;81198;-69
2022/05/27 12:43:26;;;;;;;6.20;2.58;;;22.80;51.20;;;;;;6157799;28;81475;-69
2022/05/27 12:46:27;;;;;;;5.85;2.35;;;22.70;51.30;;;;;;6158205;28;80572;-67
2022/05/27 12:49:28;;;;;;;6.53;2.58;;;22.70;51.60;;;;;;6160385;28;80336;-66
2022/05/27 12:52:28;;;;;;;6.30;2.17;;;22.70;51.60;;;;;;6157923;28;81811;-68
2022/05/27 12:55:29;;;;;;;6.30;1.60;;;22.80;51.60;;;;;;6160875;28;81257;-69
2022/05/27 13:01:48;;;;;;;6.47;1.67;;;22.90;52.30;;;;;;6161375;28;80453;-66
2022/05/27 13:04:49;;;;;;;6.82;1.90;;;23.00;54.80;;;;;;6160569;28;80379;-66
2022/05/27 13:07:50;;;;;;;6.13;2.05;;;23.00;56.60;;;;;;6160359;28;80422;-65
2022/05/27 13:10:50;;;;;;;3.95;1.88;;;22.90;57.00;;;;;;6151061;28;80923;-65
2022/05/27 13:13:51;;;;;;;3.78;1.98;;;22.90;56.80;;;;;;6159156;28;82618;-66
2022/05/27 13:16:51;;;;;;;3.50;2.08;;;22.80;56.80;;;;;;6154926;28;81318;-65
2022/05/27 13:19:52;;;;;;;4.70;1.60;;;22.80;56.50;;;;;;6148475;28;80268;-65
2022/05/27 13:22:52;;;;;;;7.20;1.58;;;22.60;56.10;;;;;;6160487;28;81219;-61
2022/05/27 13:25:53;;;;;;;6.40;1.55;;;22.50;56.20;;;;;;6159830;28;81040;-61
2022/05/27 13:28:53;;;;;;;6.05;1.73;;;22.50;56.10;;;;;;6157296;28;81449;-67
2022/05/27 13:31:54;;;;;;;21.63;1.85;;;22.60;56.30;;;;;;6159457;28;80829;-67
2022/05/27 13:34:54;;;;;;;4.45;1.73;;;22.60;55.60;;;;;;6157142;28;81888;-66
2022/05/27 13:37:55;;;;;;;16.95;1.70;;;22.60;55.50;;;;;;6157016;28;80504;-67
2022/05/27 13:40:55;;;;;;;1.88;1.00;;;22.60;55.50;;;;;;6159143;28;81746;-66
2022/05/27 13:43:56;;;;;;;2.42;1.60;;;22.70;55.30;;;;;;6159663;28;80423;-66
2022/05/27 13:46:57;;;;;;;4.28;1.15;;;22.70;55.40;;;;;;6155477;28;81527;-65
2022/05/27 13:49:57;;;;;;;2.22;1.35;;;22.70;55.30;;;;;;6156956;28;81746;-66
2022/05/27 13:52:58;;;;;;;2.63;0.90;;;22.70;55.60;;;;;;6158809;28;80244;-66
2022/05/27 13:55:58;;;;;;;2.67;1.30;;;22.70;55.80;;;;;;6143395;28;80485;-67
2022/05/27 13:58:59;;;;;;;1.10;1.00;;;22.80;55.80;;;;;;6157115;28;81603;-66
2022/05/27 14:01:59;;;;;;;1.15;1.05;;;22.80;55.80;;;;;;6159108;28;80599;-66
2022/05/27 14:05:00;;;;;;;2.08;1.33;;;22.80;55.80;;;;;;6159008;28;81291;-67
2022/05/27 14:08:00;;;;;;;0.82;0.82;;;22.80;55.50;;;;;;6159432;28;80197;-67
2022/05/27 14:11:01;;;;;;;3.75;0.90;;;22.80;55.60;;;;;;6153399;28;80477;-66
2022/05/27 14:14:02;;;;;;;3.95;1.15;;;22.80;55.70;;;;;;6159246;28;80595;-67
2022/05/27 14:17:02;;;;;;;1.33;1.02;;;22.80;55.60;;;;;;6169249;28;81386;-66
2022/05/27 14:20:03;;;;;;;92.13;44.03;;;22.90;55.60;;;;;;6153435;28;80242;-68
2022/05/27 14:23:03;;;;;;;231.23;105.53;;;22.90;55.50;;;;;;6155535;28;83286;-68
2022/05/27 14:26:04;;;;;;;309.85;137.95;;;22.90;55.50;;;;;;6145918;28;85793;-67
2022/05/27 14:29:04;;;;;;;394.10;175.70;;;22.90;55.50;;;;;;6150630;28;85713;-67
2022/05/27 14:32:05;;;;;;;450.27;205.55;;;22.90;55.60;;;;;;6149853;28;85551;-66
2022/05/27 14:35:05;;;;;;;389.20;172.20;;;22.90;55.60;;;;;;6144964;28;86676;-67
2022/05/27 14:38:06;;;;;;;244.68;107.55;;;23.00;55.40;;;;;;6147443;28;86229;-66
2022/05/27 14:41:09;;;;;;;185.85;86.70;;;22.90;55.70;;;;;;6141005;28;85943;-65
2022/05/27 14:44:09;;;;;;;381.15;165.88;;;23.00;55.70;;;;;;6139394;28;86044;-64
2022/05/27 14:47:13;;;;;;;458.60;207.95;;;23.00;55.80;;;;;;6135503;28;85580;-65
2022/05/27 14:50:14;;;;;;;467.90;220.63;;;23.00;55.60;;;;;;6132050;28;86107;-69
2022/05/27 14:53:15;;;;;;;532.58;251.32;;;23.00;55.40;;;;;;6140607;28;85672;-65
2022/05/27 14:56:15;;;;;;;521.35;239.32;;;23.00;55.30;;;;;;6152318;28;86313;-65
2022/05/27 14:59:16;;;;;;;407.30;180.48;;;23.00;55.20;;;;;;6152039;28;85536;-69
2022/05/27 15:02:16;;;;;;;345.33;151.52;;;23.00;54.90;;;;;;6145261;28;85536;-68
2022/05/27 15:05:17;;;;;;;255.50;112.03;;;23.00;54.80;;;;;;6136551;28;86385;-65
2022/05/27 15:08:17;;;;;;;185.82;77.35;;;23.00;54.90;;;;;;6136983;28;85541;-65
2022/05/27 15:11:18;;;;;;;151.98;64.53;;;23.00;54.90;;;;;;6133194;28;87186;-65
2022/05/27 15:14:19;;;;;;;139.77;57.90;;;23.00;54.90;;;;;;6145374;28;83619;-65
2022/05/27 15:17:19;;;;;;;114.72;46.67;;;23.00;54.80;;;;;;6143919;28;83401;-66
2022/05/27 15:20:20;;;;;;;90.57;39.63;;;22.90;54.70;;;;;;6144394;28;83294;-65
2022/05/27 15:23:20;;;;;;;80.95;33.53;;;22.90;54.80;;;;;;6149426;28;83826;-66
2022/05/27 15:33:06;;;;;;;59.25;25.52;;;22.90;54.30;;;;;;6154953;28;82907;-65
2022/05/27 15:36:07;;;;;;;44.42;19.83;;;22.90;54.20;;;;;;6150006;28;82982;-66
2022/05/27 15:39:07;;;;;;;43.72;19.38;;;22.90;54.30;;;;;;6153723;28;83268;-68
2022/05/27 15:42:07;;;;;;;45.35;18.38;;;23.00;54.60;;;;;;6140758;28;83012;-67
2022/05/27 15:45:08;;;;;;;41.67;18.33;;;23.00;54.50;;;;;;6156862;28;83380;-68
2022/05/27 15:48:09;;;;;;;40.58;17.98;;;23.00;54.70;;;;;;6156185;28;82894;-67
2022/05/27 15:51:09;;;;;;;39.53;17.70;;;23.00;54.50;;;;;;6157507;28;83423;-66
2022/05/27 15:54:10;;;;;;;43.28;17.02;;;23.00;54.50;;;;;;6164445;28;83380;-67
2022/05/27 15:57:11;;;;;;;36.65;15.98;;;23.00;54.90;;;;;;6153102;28;83287;-66
2022/05/27 16:00:11;;;;;;;38.95;15.32;;;23.00;54.80;;;;;;6158485;28;83209;-65
2022/05/27 16:03:13;;;;;;;28.40;12.75;;;22.90;55.30;;;;;;6156783;28;82787;-67
2022/05/27 16:06:13;;;;;;;34.40;14.00;;;22.90;55.90;;;;;;6157955;28;83263;-68
2022/05/27 16:09:14;;;;;;;28.83;11.77;;;22.90;56.00;;;;;;6156834;28;83044;-69
2022/05/27 16:12:14;;;;;;;28.00;11.95;;;22.90;56.40;;;;;;6157686;28;83037;-67
2022/05/27 16:15:15;;;;;;;28.80;11.68;;;22.90;55.80;;;;;;6157147;28;85032;-67
2022/05/27 16:18:16;;;;;;;29.10;11.88;;;22.90;55.80;;;;;;6158174;28;83380;-67
2022/05/27 16:21:16;;;;;;;22.88;9.82;;;22.90;56.20;;;;;;6151048;28;82772;-68